To NAV CANADA Home Page Login to a new session Search on AWWS site Disclaimer Vers la page française équivalente Tips FAQ What's new on the site To the Forecasts and Observations / NOTAM section To "File a Flight Plan" website Publications and other links Update of the User's profile FIC Telephone Numbers My Weather Data Folder Route Weather Data Regional Weather Data Local Weather Data To the Forecasts and Observations / NOTAM section
Request Generated 03/19/2019 at 23:05:20 UTC . Weather information available at that time is displayed.

METAR/TAF

FORT MCPHERSON/NT    

METAR CZFM 192300Z 26010G17KT 200V290 35SM FEW140 10/M00 A2963 RMK AC1 AC TR /R0.0/S00/AFT 2300Z/SN CVR/MUCH LOOSE LAST OBS/NXT 2113
00Z SLP037=
METAR CZFM 192200Z 14005KT 35SM SCT190 05/M03 A2961 RMK AC3 SLP032=
METAR CZFM 192100Z 13006KT 110V180 35SM SCT190 02/M05 A2961 RMK AC3 SLP031=

*** REMARK        : Forecast period has ended; this was the last TAF issued
*** REMARQUE : La période de prévision est échue; ceci était le dernier TAF qui a été émis
TAF CZFM 191840Z 1919/1923 16005KT P6SM SCT150
FM192000 19005KT P6SM SCT006 BKN030 TEMPO 1920/1922 2SM BR BKN006
FM192200 23008KT P6SM SCT030
RMK NXT FCST WILL BE ISSUED AT 201445Z=
Your time UTC time
Weather data provided by Environment Canada and NAV CANADA